Rycroft, Canada
Current Conditions -  °F | °C
As of 5:13 PM on Friday 28 Nov 2014 (Local Time) from CYQU Reporting Station
Few Clouds Few Clouds  
Wind Chill: -31°   Ceiling: Unl
Heat Index: -17°   Visibility: 20mi
Dew Point: -20°   Wind: 6mph
Humidity: 84%   Direction: 270°W
Pressure: 30.04"   Gusts: NA
Location:  55.77°N, 118.72°W
Report Text: CYQU 290013Z 27005KT 20SM FEW060 FEW130 M27/M29 A3004 RMK SC1AC1 SLP250
Loading
Personal Weather Stations






























Interactive Weather Map New forecast layout! Learn more

10-Day Weather Forecast

Advertisements
Track Severe Weather on mobile